Terminal Aerodrome Forecast
Issued by NWS

Home | Current Version | Previous Version | Text Only | Print | Product List | Glossary On
Versions: 1 2 3 4 5 6 7 8 9 10 11 12 13 14 15
000
FTUS43 KGLD 232200 AAB
TAFMCK
TAF AMD
KMCK 232208Z 2322/2418 35015G23KT P6SM SKC
      TEMPO 2322/2324 6SM TSRA BKN050CB
     FM240000 34025G40KT P6SM BKN050
      TEMPO 2400/2403 TSRA OVC050CB
     FM240300 33020KT P6SM BKN100
     FM240700 31012KT P6SM SCT250=

USA.gov is the U.S. government's official web portal to all federal, state and local government web resources and services.